createdAt,value
2018-03-17T00:00:49.822Z,18.09
2018-03-17T00:01:49.787Z,18.1
2018-03-17T00:02:49.802Z,18.08
2018-03-17T00:03:49.823Z,18.06
2018-03-17T00:04:49.756Z,18.07
2018-03-17T00:05:49.798Z,18.08
2018-03-17T00:06:49.821Z,18.09
2018-03-17T00:07:49.781Z,18.1
2018-03-17T00:08:50.010Z,18.05
2018-03-17T00:09:49.825Z,18.04
2018-03-17T00:10:49.765Z,18.06
2018-03-17T00:11:49.820Z,18.04
2018-03-17T00:12:49.894Z,18.04
2018-03-17T00:13:49.854Z,18.04
2018-03-17T00:14:49.783Z,18.02
2018-03-17T00:15:49.795Z,18.02
2018-03-17T00:16:49.766Z,18.03
2018-03-17T00:17:49.793Z,18.03
2018-03-17T00:18:49.845Z,18.03
2018-03-17T00:19:49.760Z,18
2018-03-17T00:20:49.792Z,18
2018-03-17T00:21:49.787Z,18.02
2018-03-17T00:22:49.776Z,17.99
2018-03-17T00:23:49.836Z,18
2018-03-17T00:24:50.086Z,17.98
2018-03-17T00:25:49.758Z,17.99
2018-03-17T00:26:49.776Z,17.99
2018-03-17T00:27:49.777Z,17.96
2018-03-17T00:28:49.794Z,17.99
2018-03-17T00:29:49.785Z,17.99
2018-03-17T00:30:49.781Z,17.99
2018-03-17T00:31:49.776Z,18
2018-03-17T00:32:49.783Z,18
2018-03-17T00:33:49.798Z,17.98
2018-03-17T00:34:49.764Z,17.99
2018-03-17T00:35:49.788Z,17.97
2018-03-17T00:36:49.778Z,18
2018-03-17T00:37:49.779Z,17.95
2018-03-17T00:38:49.779Z,17.95
2018-03-17T00:39:49.829Z,17.95
2018-03-17T00:40:49.753Z,17.97
2018-03-17T00:41:49.780Z,17.96
2018-03-17T00:42:49.785Z,17.96
2018-03-17T00:43:49.756Z,17.95
2018-03-17T00:44:49.807Z,17.93
2018-03-17T00:45:49.788Z,17.96
2018-03-17T00:46:49.750Z,17.95
2018-03-17T00:47:49.807Z,17.95
2018-03-17T00:48:49.777Z,17.93
2018-03-17T00:49:49.917Z,17.96
2018-03-17T00:50:49.782Z,17.95
2018-03-17T00:51:49.801Z,17.93
2018-03-17T00:52:49.766Z,17.93
2018-03-17T00:53:49.798Z,17.95
2018-03-17T00:54:49.813Z,17.93
2018-03-17T00:55:49.785Z,17.93
2018-03-17T00:56:49.779Z,17.91
2018-03-17T00:57:49.802Z,17.92
2018-03-17T00:58:49.765Z,17.91
2018-03-17T00:59:49.773Z,17.91
2018-03-17T01:00:49.811Z,17.92
2018-03-17T01:01:49.745Z,17.91
2018-03-17T01:02:49.801Z,17.91
2018-03-17T01:03:49.804Z,17.91
2018-03-17T01:04:49.742Z,17.95
2018-03-17T01:05:49.787Z,17.92
2018-03-17T01:06:49.764Z,17.88
2018-03-17T01:07:49.748Z,17.91
2018-03-17T01:08:49.770Z,17.88
2018-03-17T01:09:49.782Z,17.91
2018-03-17T01:10:49.776Z,17.9
2018-03-17T01:11:49.784Z,17.9
2018-03-17T01:12:49.797Z,17.93
2018-03-17T01:13:49.768Z,17.91
2018-03-17T01:14:49.785Z,17.88
2018-03-17T01:15:49.773Z,17.88
2018-03-17T01:16:49.754Z,17.88
2018-03-17T01:17:49.805Z,17.88
2018-03-17T01:18:49.763Z,17.87
2018-03-17T01:19:49.750Z,17.85
2018-03-17T01:20:49.771Z,17.87
2018-03-17T01:21:49.792Z,17.87
2018-03-17T01:22:49.773Z,17.88
2018-03-17T01:23:49.770Z,17.84
2018-03-17T01:24:49.779Z,17.88
2018-03-17T01:25:49.746Z,17.85
2018-03-17T01:26:49.794Z,17.83
2018-03-17T01:27:50.034Z,17.85
2018-03-17T01:28:49.767Z,17.84
2018-03-17T01:29:49.767Z,17.84
2018-03-17T01:30:49.757Z,17.85
2018-03-17T01:31:49.738Z,17.82
2018-03-17T01:32:49.766Z,17.83
2018-03-17T01:33:49.772Z,17.82
2018-03-17T01:34:49.934Z,17.83
2018-03-17T01:35:49.774Z,17.83
2018-03-17T01:36:49.828Z,17.83
2018-03-17T01:37:49.723Z,17.84
2018-03-17T01:38:49.776Z,17.81
2018-03-17T01:39:49.793Z,17.81
2018-03-17T01:40:49.742Z,17.82
2018-03-17T01:41:49.790Z,17.8
2018-03-17T01:42:49.749Z,17.82
2018-03-17T01:43:49.736Z,17.82
2018-03-17T01:44:49.767Z,17.8
2018-03-17T01:45:49.775Z,17.81
2018-03-17T01:46:49.747Z,17.81
2018-03-17T01:47:49.758Z,17.8
2018-03-17T01:48:49.779Z,17.79
2018-03-17T01:49:49.732Z,17.82
2018-03-17T01:50:49.923Z,17.82
2018-03-17T01:51:49.780Z,17.8
2018-03-17T01:52:49.730Z,17.8
2018-03-17T01:53:49.745Z,17.8
2018-03-17T01:54:49.778Z,17.8
2018-03-17T01:55:49.734Z,17.77
2018-03-17T01:56:49.768Z,17.76
2018-03-17T01:57:49.765Z,17.77
2018-03-17T01:58:49.757Z,17.79
2018-03-17T01:59:49.758Z,17.79
2018-03-17T02:00:49.759Z,17.8
2018-03-17T02:01:49.765Z,17.81
2018-03-17T02:02:49.763Z,17.78
2018-03-17T02:03:49.764Z,17.8
2018-03-17T02:04:49.731Z,17.79
2018-03-17T02:05:49.757Z,17.78
2018-03-17T02:06:49.748Z,17.78
2018-03-17T02:07:49.758Z,17.79
2018-03-17T02:08:49.771Z,17.76
2018-03-17T02:09:49.764Z,17.76
2018-03-17T02:10:49.733Z,17.76
2018-03-17T02:11:49.747Z,17.76
2018-03-17T02:12:49.772Z,17.77
2018-03-17T02:13:49.807Z,17.76
2018-03-17T02:14:49.856Z,17.74
2018-03-17T02:15:49.742Z,17.77
2018-03-17T02:16:49.764Z,17.76
2018-03-17T02:17:49.750Z,17.76
2018-03-17T02:18:49.752Z,17.75
2018-03-17T02:19:49.746Z,17.73
2018-03-17T02:20:49.763Z,17.73
2018-03-17T02:21:49.750Z,17.74
2018-03-17T02:22:49.713Z,17.73
2018-03-17T02:23:49.747Z,17.72
2018-03-17T02:24:49.775Z,17.73
2018-03-17T02:25:49.714Z,17.74
2018-03-17T02:26:49.747Z,17.72
2018-03-17T02:27:49.742Z,17.73
2018-03-17T02:28:49.746Z,17.73
2018-03-17T02:29:50.031Z,17.7
2018-03-17T02:30:49.772Z,17.72
2018-03-17T02:31:49.726Z,17.72
2018-03-17T02:32:49.752Z,17.7
2018-03-17T02:33:49.800Z,17.7
2018-03-17T02:34:49.739Z,17.72
2018-03-17T02:35:49.756Z,17.73
2018-03-17T02:36:49.770Z,17.69
2018-03-17T02:37:49.723Z,17.74
2018-03-17T02:38:49.780Z,17.68
2018-03-17T02:39:49.766Z,17.68
2018-03-17T02:40:49.722Z,17.68
2018-03-17T02:41:49.760Z,17.7
2018-03-17T02:42:49.773Z,17.68
2018-03-17T02:43:49.716Z,17.7
2018-03-17T02:44:49.780Z,17.68
2018-03-17T02:45:49.746Z,17.7
2018-03-17T02:46:49.715Z,17.7
2018-03-17T02:47:49.741Z,17.66
2018-03-17T02:48:49.793Z,17.66
2018-03-17T02:49:49.717Z,17.66
2018-03-17T02:50:49.778Z,17.66
2018-03-17T02:51:49.757Z,17.68
2018-03-17T02:52:49.729Z,17.66
2018-03-17T02:53:49.746Z,17.65
2018-03-17T02:54:49.771Z,17.7
2018-03-17T02:55:49.761Z,17.64
2018-03-17T02:56:49.745Z,17.66
2018-03-17T02:57:49.745Z,17.68
2018-03-17T02:58:49.734Z,17.67
2018-03-17T02:59:49.781Z,17.64
2018-03-17T03:00:49.804Z,17.65
2018-03-17T03:01:49.736Z,17.67
2018-03-17T03:02:49.763Z,17.64
2018-03-17T03:03:49.747Z,17.64
2018-03-17T03:04:49.710Z,17.64
2018-03-17T03:05:49.750Z,17.65
2018-03-17T03:06:49.784Z,17.64
2018-03-17T03:07:49.734Z,17.63
2018-03-17T03:08:49.747Z,17.63
2018-03-17T03:09:49.733Z,17.63
2018-03-17T03:10:49.716Z,17.64
2018-03-17T03:11:49.762Z,17.64
2018-03-17T03:12:49.739Z,17.63
2018-03-17T03:13:49.706Z,17.65
2018-03-17T03:14:49.746Z,17.62
2018-03-17T03:15:49.744Z,17.63
2018-03-17T03:16:49.718Z,17.64
2018-03-17T03:17:49.734Z,17.63
2018-03-17T03:18:49.744Z,17.64
2018-03-17T03:19:49.719Z,17.63
2018-03-17T03:20:49.761Z,17.63
2018-03-17T03:21:49.768Z,17.63
2018-03-17T03:22:49.709Z,17.65
2018-03-17T03:23:49.730Z,17.62
2018-03-17T03:24:49.732Z,17.62
2018-03-17T03:25:49.708Z,17.62
2018-03-17T03:26:49.753Z,17.62
2018-03-17T03:27:49.743Z,17.63
2018-03-17T03:28:49.703Z,17.63
2018-03-17T03:29:49.719Z,17.63
2018-03-17T03:30:49.770Z,17.62
2018-03-17T03:31:49.710Z,17.63
2018-03-17T03:32:49.743Z,17.59
2018-03-17T03:33:49.730Z,17.6
2018-03-17T03:34:49.704Z,17.6
2018-03-17T03:35:49.768Z,17.59
2018-03-17T03:36:49.719Z,17.62
2018-03-17T03:37:49.710Z,17.6
2018-03-17T03:38:49.731Z,17.59
2018-03-17T03:39:49.756Z,17.59
2018-03-17T03:40:49.740Z,17.59
2018-03-17T03:41:49.708Z,17.56
2018-03-17T03:42:49.781Z,17.59
2018-03-17T03:43:49.702Z,17.59
2018-03-17T03:44:49.733Z,17.55
2018-03-17T03:45:49.717Z,17.59
2018-03-17T03:46:49.723Z,17.55
2018-03-17T03:47:49.729Z,17.56
2018-03-17T03:48:49.718Z,17.56
2018-03-17T03:49:49.700Z,17.53
2018-03-17T03:50:49.725Z,17.54
2018-03-17T03:51:49.737Z,17.56
2018-03-17T03:52:49.687Z,17.58
2018-03-17T03:53:49.713Z,17.54
2018-03-17T03:54:49.734Z,17.58
2018-03-17T03:55:49.683Z,17.55
2018-03-17T03:56:49.978Z,17.56
2018-03-17T03:57:49.715Z,17.55
2018-03-17T03:58:49.745Z,17.56
2018-03-17T03:59:49.698Z,17.56
2018-03-17T04:00:49.720Z,17.56
2018-03-17T04:01:49.693Z,17.55
2018-03-17T04:02:49.713Z,17.54
2018-03-17T04:03:49.715Z,17.54
2018-03-17T04:04:49.706Z,17.54
2018-03-17T04:05:49.736Z,17.54
2018-03-17T04:06:49.722Z,17.52
2018-03-17T04:07:49.706Z,17.54
2018-03-17T04:08:49.725Z,17.54
2018-03-17T04:09:49.715Z,17.51
2018-03-17T04:10:49.705Z,17.51
2018-03-17T04:11:49.714Z,17.52
2018-03-17T04:12:49.888Z,17.52
2018-03-17T04:13:49.693Z,17.53
2018-03-17T04:14:49.844Z,17.54
2018-03-17T04:15:49.824Z,17.51
2018-03-17T04:16:49.699Z,17.51
2018-03-17T04:17:49.749Z,17.51
2018-03-17T04:18:49.727Z,17.5
2018-03-17T04:19:49.686Z,17.51
2018-03-17T04:20:49.718Z,17.5
2018-03-17T04:21:49.712Z,17.52
2018-03-17T04:22:49.711Z,17.53
2018-03-17T04:23:49.735Z,17.5
2018-03-17T04:24:49.707Z,17.5
2018-03-17T04:25:49.696Z,17.5
2018-03-17T04:26:49.706Z,17.49
2018-03-17T04:27:49.711Z,17.51
2018-03-17T04:28:49.684Z,17.49
2018-03-17T04:29:49.706Z,17.5
2018-03-17T04:30:49.714Z,17.47
2018-03-17T04:31:49.699Z,17.49
2018-03-17T04:32:49.722Z,17.48
2018-03-17T04:33:49.723Z,17.51
2018-03-17T04:34:49.670Z,17.5
2018-03-17T04:35:49.734Z,17.46
2018-03-17T04:36:49.718Z,17.49
2018-03-17T04:37:49.696Z,17.49
2018-03-17T04:38:49.715Z,17.48
2018-03-17T04:39:49.705Z,17.49
2018-03-17T04:40:49.695Z,17.47
2018-03-17T04:41:49.690Z,17.48
2018-03-17T04:42:49.736Z,17.48
2018-03-17T04:43:49.703Z,17.47
2018-03-17T04:44:49.698Z,17.47
2018-03-17T04:45:49.716Z,17.46
2018-03-17T04:46:49.679Z,17.48
2018-03-17T04:47:49.733Z,17.45
2018-03-17T04:48:49.720Z,17.44
2018-03-17T04:49:49.667Z,17.45
2018-03-17T04:50:49.876Z,17.4
2018-03-17T04:51:49.751Z,17.45
2018-03-17T04:52:49.675Z,17.45
2018-03-17T04:53:49.700Z,17.45
2018-03-17T04:54:49.716Z,17.44
2018-03-17T04:55:49.703Z,17.43
2018-03-17T04:56:49.699Z,17.44
2018-03-17T04:57:49.724Z,17.44
2018-03-17T04:58:49.677Z,17.45
2018-03-17T04:59:49.731Z,17.44
2018-03-17T05:00:49.728Z,17.43
2018-03-17T05:01:49.682Z,17.46
2018-03-17T05:02:49.731Z,17.45
2018-03-17T05:03:49.696Z,17.39
2018-03-17T05:04:49.668Z,17.44
2018-03-17T05:05:49.701Z,17.44
2018-03-17T05:06:49.700Z,17.43
2018-03-17T05:07:49.671Z,17.45
2018-03-17T05:08:49.740Z,17.43
2018-03-17T05:09:49.744Z,17.45
2018-03-17T05:10:49.687Z,17.43
2018-03-17T05:11:49.693Z,17.4
2018-03-17T05:12:49.716Z,17.43
2018-03-17T05:13:49.658Z,17.44
2018-03-17T05:14:49.724Z,17.45
2018-03-17T05:15:49.693Z,17.41
2018-03-17T05:16:49.659Z,17.44
2018-03-17T05:17:49.730Z,17.45
2018-03-17T05:18:49.704Z,17.45
2018-03-17T05:19:49.688Z,17.45
2018-03-17T05:20:49.700Z,17.48
2018-03-17T05:21:49.706Z,17.47
2018-03-17T05:22:49.682Z,17.48
2018-03-17T05:23:49.719Z,17.51
2018-03-17T05:24:49.844Z,17.5
2018-03-17T05:25:49.679Z,17.53
2018-03-17T05:26:49.691Z,17.52
2018-03-17T05:27:49.708Z,17.55
2018-03-17T05:28:49.709Z,17.54
2018-03-17T05:29:49.709Z,17.58
2018-03-17T05:30:49.696Z,17.6
2018-03-17T05:31:49.652Z,17.59
2018-03-17T05:32:49.681Z,17.62
2018-03-17T05:33:49.679Z,17.64
2018-03-17T05:34:49.670Z,17.66
2018-03-17T05:35:49.722Z,17.67
2018-03-17T05:36:49.679Z,17.68
2018-03-17T05:37:49.670Z,17.69
2018-03-17T05:38:49.692Z,17.73
2018-03-17T05:39:49.708Z,17.74
2018-03-17T05:40:49.670Z,17.74
2018-03-17T05:41:49.693Z,17.78
2018-03-17T05:42:49.725Z,17.79
2018-03-17T05:43:49.652Z,17.8
2018-03-17T05:44:49.718Z,17.83
2018-03-17T05:45:49.721Z,17.84
2018-03-17T05:46:49.722Z,17.84
2018-03-17T05:47:49.692Z,17.88
2018-03-17T05:48:49.706Z,17.9
2018-03-17T05:49:49.670Z,17.91
2018-03-17T05:50:49.682Z,17.93
2018-03-17T05:51:49.686Z,17.95
2018-03-17T05:52:49.677Z,17.94
2018-03-17T05:53:49.813Z,17.96
2018-03-17T05:54:49.695Z,17.98
2018-03-17T05:55:49.655Z,17.98
2018-03-17T05:56:49.686Z,17.99
2018-03-17T05:57:49.706Z,18
2018-03-17T05:58:49.685Z,18.04
2018-03-17T05:59:49.703Z,18.04
2018-03-17T06:00:49.695Z,18.06
2018-03-17T06:01:49.653Z,18.08
2018-03-17T06:02:49.738Z,18.09
2018-03-17T06:03:49.709Z,18.09
2018-03-17T06:04:49.645Z,18.12
2018-03-17T06:05:49.682Z,18.13
2018-03-17T06:06:49.678Z,18.17
2018-03-17T06:07:49.675Z,18.17
2018-03-17T06:08:49.706Z,18.17
2018-03-17T06:09:49.705Z,18.19
2018-03-17T06:10:49.678Z,18.19
2018-03-17T06:11:49.675Z,18.22
2018-03-17T06:12:49.672Z,18.23
2018-03-17T06:13:49.684Z,18.24
2018-03-17T06:14:49.714Z,18.25
2018-03-17T06:15:49.808Z,18.24
2018-03-17T06:16:49.754Z,18.25
2018-03-17T06:17:49.676Z,18.28
2018-03-17T06:18:50.066Z,18.29
2018-03-17T06:19:49.655Z,18.29
2018-03-17T06:20:49.679Z,18.33
2018-03-17T06:21:49.701Z,18.3
2018-03-17T06:22:49.640Z,18.34
2018-03-17T06:23:49.698Z,18.36
2018-03-17T06:24:49.710Z,18.35
2018-03-17T06:25:49.630Z,18.37
2018-03-17T06:26:49.689Z,18.39
2018-03-17T06:27:49.679Z,18.39
2018-03-17T06:28:49.642Z,18.41
2018-03-17T06:29:49.693Z,18.42
2018-03-17T06:30:50.113Z,18.43
2018-03-17T06:31:49.666Z,18.44
2018-03-17T06:32:49.677Z,18.46
2018-03-17T06:33:49.546Z,18.47
2018-03-17T06:34:49.642Z,18.48
2018-03-17T06:35:49.683Z,18.49
2018-03-17T06:36:49.667Z,18.49
2018-03-17T06:37:49.632Z,18.49
2018-03-17T06:38:49.699Z,18.51
2018-03-17T06:39:49.686Z,18.51
2018-03-17T06:40:49.651Z,18.54
2018-03-17T06:41:49.663Z,18.55
2018-03-17T06:42:49.686Z,18.56
2018-03-17T06:43:49.838Z,18.57
2018-03-17T06:44:49.676Z,18.61
2018-03-17T06:45:49.665Z,18.59
2018-03-17T06:46:49.628Z,18.57
2018-03-17T06:47:49.683Z,18.62
2018-03-17T06:48:49.966Z,18.62
2018-03-17T06:49:49.646Z,18.63
2018-03-17T06:50:49.668Z,18.66
2018-03-17T06:51:49.671Z,18.66
2018-03-17T06:52:49.633Z,18.66
2018-03-17T06:53:49.685Z,18.65
2018-03-17T06:54:49.663Z,18.69
2018-03-17T06:55:49.697Z,18.67
2018-03-17T06:56:49.655Z,18.68
2018-03-17T06:57:49.674Z,18.71
2018-03-17T06:58:49.632Z,18.69
2018-03-17T06:59:49.651Z,18.71
2018-03-17T07:00:49.691Z,18.7
2018-03-17T07:01:49.635Z,18.69
2018-03-17T07:02:49.675Z,18.73
2018-03-17T07:03:49.655Z,18.71
2018-03-17T07:04:49.635Z,18.71
2018-03-17T07:05:49.665Z,18.73
2018-03-17T07:06:49.677Z,18.72
2018-03-17T07:07:49.626Z,18.74
2018-03-17T07:08:49.693Z,18.76
2018-03-17T07:09:49.683Z,18.74
2018-03-17T07:10:49.631Z,18.74
2018-03-17T07:11:49.670Z,18.76
2018-03-17T07:12:49.674Z,18.78
2018-03-17T07:13:49.692Z,18.77
2018-03-17T07:14:49.648Z,18.79
2018-03-17T07:15:49.691Z,18.78
2018-03-17T07:16:49.637Z,18.78
2018-03-17T07:17:49.657Z,18.81
2018-03-17T07:18:49.678Z,18.81
2018-03-17T07:19:49.620Z,18.81
2018-03-17T07:20:49.656Z,18.82
2018-03-17T07:21:49.656Z,18.84
2018-03-17T07:22:49.646Z,18.83
2018-03-17T07:23:49.680Z,18.85
2018-03-17T07:24:49.695Z,18.84
2018-03-17T07:25:49.631Z,18.85
2018-03-17T07:26:49.637Z,18.86
2018-03-17T07:27:49.673Z,18.87
2018-03-17T07:28:49.667Z,18.86
2018-03-17T07:29:49.688Z,18.89
2018-03-17T07:30:49.651Z,18.88
2018-03-17T07:31:49.632Z,18.88
2018-03-17T07:32:49.662Z,18.91
2018-03-17T07:33:49.687Z,18.91
2018-03-17T07:34:49.656Z,18.91
2018-03-17T07:35:49.717Z,18.89
2018-03-17T07:36:49.649Z,18.91
2018-03-17T07:37:49.696Z,18.89
2018-03-17T07:38:49.643Z,18.94
2018-03-17T07:39:49.636Z,18.93
2018-03-17T07:40:49.657Z,18.91
2018-03-17T07:41:49.678Z,18.94
2018-03-17T07:42:49.652Z,18.95
2018-03-17T07:43:49.606Z,18.94
2018-03-17T07:44:49.648Z,18.95
2018-03-17T07:45:49.660Z,18.96
2018-03-17T07:46:49.624Z,18.96
2018-03-17T07:47:49.664Z,18.97
2018-03-17T07:48:49.649Z,18.97
2018-03-17T07:49:49.681Z,18.97
2018-03-17T07:50:49.658Z,18.98
2018-03-17T07:51:49.663Z,18.97
2018-03-17T07:52:49.785Z,18.99
2018-03-17T07:53:49.648Z,18.99
2018-03-17T07:54:49.636Z,19.01
2018-03-17T07:55:49.610Z,18.99
2018-03-17T07:56:49.676Z,19.02
2018-03-17T07:57:49.661Z,19.02
2018-03-17T07:58:49.609Z,19
2018-03-17T07:59:49.641Z,19.01
2018-03-17T08:00:49.666Z,19.02
2018-03-17T08:01:49.714Z,19.03
2018-03-17T08:02:49.648Z,19.05
2018-03-17T08:03:49.926Z,19.06
2018-03-17T08:04:49.624Z,19.08
2018-03-17T08:05:49.644Z,19.07
2018-03-17T08:06:49.673Z,19.08
2018-03-17T08:07:49.628Z,19.09
2018-03-17T08:08:49.669Z,19.09
2018-03-17T08:09:49.668Z,19.1
2018-03-17T08:10:49.609Z,19.11
2018-03-17T08:11:49.649Z,19.12
2018-03-17T08:12:49.926Z,19.11
2018-03-17T08:13:49.617Z,19.11
2018-03-17T08:14:49.664Z,19.11
2018-03-17T08:15:49.662Z,19.11
2018-03-17T08:16:49.712Z,19.12
2018-03-17T08:17:50.064Z,19.15
2018-03-17T08:18:49.634Z,19.14
2018-03-17T08:19:49.638Z,19.14
2018-03-17T08:20:49.632Z,19.16
2018-03-17T08:21:49.651Z,19.16
2018-03-17T08:22:49.643Z,19.15
2018-03-17T08:23:49.639Z,19.17
2018-03-17T08:24:49.649Z,19.21
2018-03-17T08:25:49.603Z,19.16
2018-03-17T08:26:49.624Z,19.21
2018-03-17T08:27:49.622Z,19.2
2018-03-17T08:28:49.612Z,19.18
2018-03-17T08:29:49.629Z,19.21
2018-03-17T08:30:49.666Z,19.21
2018-03-17T08:31:49.614Z,19.21
2018-03-17T08:32:49.632Z,19.22
2018-03-17T08:33:49.638Z,19.22
2018-03-17T08:34:49.612Z,19.23
2018-03-17T08:35:49.628Z,19.23
2018-03-17T08:36:49.655Z,19.21
2018-03-17T08:37:49.605Z,19.23
2018-03-17T08:38:49.640Z,19.23
2018-03-17T08:39:49.646Z,19.22
2018-03-17T08:40:49.615Z,19.24
2018-03-17T08:41:49.639Z,19.24
2018-03-17T08:42:49.600Z,19.24
2018-03-17T08:43:49.634Z,19.22
2018-03-17T08:44:49.656Z,19.22
2018-03-17T08:45:49.647Z,19.23
2018-03-17T08:46:49.612Z,19.24
2018-03-17T08:47:49.626Z,19.24
2018-03-17T08:48:49.636Z,19.23
2018-03-17T08:49:49.626Z,19.24
2018-03-17T08:50:49.623Z,19.27
2018-03-17T08:51:49.478Z,19.22
2018-03-17T08:52:49.608Z,19.24
2018-03-17T08:53:49.624Z,19.27
2018-03-17T08:54:49.627Z,19.25
2018-03-17T08:55:49.596Z,19.25
2018-03-17T08:56:49.623Z,19.28
2018-03-17T08:57:49.655Z,19.26
2018-03-17T08:58:50.088Z,19.27
2018-03-17T08:59:49.612Z,19.28
2018-03-17T09:00:49.624Z,19.27
2018-03-17T09:01:49.584Z,19.28
2018-03-17T09:02:49.641Z,19.3
2018-03-17T09:03:49.613Z,19.27
2018-03-17T09:04:49.878Z,19.28
2018-03-17T09:05:49.621Z,19.3
2018-03-17T09:06:49.656Z,19.3
2018-03-17T09:07:49.733Z,19.3
2018-03-17T09:08:49.622Z,19.29
2018-03-17T09:09:49.614Z,19.31
2018-03-17T09:10:49.603Z,19.31
2018-03-17T09:11:49.626Z,19.32
2018-03-17T09:12:49.643Z,19.31
2018-03-17T09:13:49.596Z,19.32
2018-03-17T09:14:49.671Z,19.32
2018-03-17T09:15:49.621Z,19.33
2018-03-17T09:16:49.595Z,19.32
2018-03-17T09:17:49.641Z,19.36
2018-03-17T09:18:49.623Z,19.33
2018-03-17T09:19:49.603Z,19.33
2018-03-17T09:20:49.619Z,19.35
2018-03-17T09:21:49.635Z,19.35
2018-03-17T09:22:49.618Z,19.33
2018-03-17T09:23:49.616Z,19.36
2018-03-17T09:24:49.644Z,19.37
2018-03-17T09:25:49.601Z,19.33
2018-03-17T09:26:49.614Z,19.36
2018-03-17T09:27:49.616Z,19.35
2018-03-17T09:28:49.724Z,19.36
2018-03-17T09:29:49.626Z,19.38
2018-03-17T09:30:49.620Z,19.37
2018-03-17T09:31:49.580Z,19.37
2018-03-17T09:32:49.632Z,19.37
2018-03-17T09:33:49.668Z,19.37
2018-03-17T09:34:49.854Z,19.37
2018-03-17T09:35:49.635Z,19.37
2018-03-17T09:36:49.603Z,19.39
2018-03-17T09:37:49.588Z,19.39
2018-03-17T09:38:49.605Z,19.4
2018-03-17T09:39:49.610Z,19.38
2018-03-17T09:40:49.588Z,19.42
2018-03-17T09:41:49.677Z,19.42
2018-03-17T09:42:49.605Z,19.42
2018-03-17T09:43:49.617Z,19.42
2018-03-17T09:44:49.612Z,19.42
2018-03-17T09:45:49.634Z,19.41
2018-03-17T09:46:49.580Z,19.44
2018-03-17T09:47:49.603Z,19.43
2018-03-17T09:48:49.640Z,19.45
2018-03-17T09:49:49.583Z,19.44
2018-03-17T09:50:49.599Z,19.46
2018-03-17T09:51:49.668Z,19.44
2018-03-17T09:52:49.579Z,19.45
2018-03-17T09:53:49.637Z,19.46
2018-03-17T09:54:49.612Z,19.46
2018-03-17T09:55:49.589Z,19.46
2018-03-17T09:56:49.614Z,19.47
2018-03-17T09:57:49.617Z,19.46
2018-03-17T09:58:49.589Z,19.46
2018-03-17T09:59:49.604Z,19.46
2018-03-17T10:00:49.610Z,19.47
2018-03-17T10:01:49.613Z,19.48
2018-03-17T10:02:49.660Z,19.5
2018-03-17T10:03:49.607Z,19.46
2018-03-17T10:04:49.766Z,19.45
2018-03-17T10:05:49.622Z,19.47
2018-03-17T10:06:49.630Z,19.48
2018-03-17T10:07:49.571Z,19.47
2018-03-17T10:08:49.613Z,19.45
2018-03-17T10:09:49.638Z,19.45
2018-03-17T10:10:49.578Z,19.46
2018-03-17T10:11:49.636Z,19.46
2018-03-17T10:12:49.755Z,19.47
2018-03-17T10:13:49.579Z,19.47
2018-03-17T10:14:49.625Z,19.5
2018-03-17T10:15:49.611Z,19.48
2018-03-17T10:16:49.557Z,19.51
2018-03-17T10:17:49.719Z,19.52
2018-03-17T10:18:49.731Z,19.52
2018-03-17T10:19:49.602Z,19.52
2018-03-17T10:20:49.607Z,19.54
2018-03-17T10:21:49.604Z,19.52
2018-03-17T10:49:51.909Z,20.06
2018-03-17T10:50:51.954Z,20.1
2018-03-17T10:51:51.907Z,20.1
2018-03-17T10:52:51.904Z,20.12
2018-03-17T10:53:51.966Z,20.11
2018-03-17T10:54:51.971Z,20.12
2018-03-17T10:55:51.985Z,20.14
2018-03-17T10:56:51.942Z,20.15
2018-03-17T10:57:51.959Z,20.15
2018-03-17T10:58:51.909Z,20.17
2018-03-17T10:59:51.960Z,20.17
2018-03-17T11:00:51.950Z,20.18
2018-03-17T11:01:51.887Z,20.2
2018-03-17T11:02:51.961Z,20.22
2018-03-17T11:03:51.961Z,20.24
2018-03-17T11:04:51.903Z,20.27
2018-03-17T11:05:52.173Z,20.29
2018-03-17T11:06:51.959Z,20.28
2018-03-17T11:07:51.898Z,20.3
2018-03-17T11:08:51.927Z,20.31
2018-03-17T11:09:51.920Z,20.34
2018-03-17T11:10:51.925Z,20.35
2018-03-17T11:11:51.926Z,20.37
2018-03-17T11:12:51.934Z,20.39
2018-03-17T11:13:51.896Z,20.4
2018-03-17T11:14:51.937Z,20.42
2018-03-17T11:15:51.961Z,20.42
2018-03-17T11:16:52.210Z,20.43
2018-03-17T11:17:51.937Z,20.43
2018-03-17T11:18:51.926Z,20.44
2018-03-17T11:19:51.891Z,20.47
2018-03-17T11:20:51.967Z,20.48
2018-03-17T11:21:43.649Z,20.48
2018-03-17T11:22:43.546Z,20.5
2018-03-17T11:23:43.546Z,20.49
2018-03-17T11:24:43.614Z,20.53
2018-03-17T11:25:43.569Z,20.54
2018-03-17T11:26:15.316Z,20.6
2018-03-17T11:27:15.305Z,20.61
2018-03-17T11:28:15.269Z,20.62
2018-03-17T11:29:15.310Z,20.63
2018-03-17T11:30:15.259Z,20.65
2018-03-17T11:31:15.274Z,20.68
2018-03-17T11:32:15.272Z,20.73
2018-03-17T11:33:15.274Z,20.72
2018-03-17T11:34:15.280Z,20.74
2018-03-17T11:35:15.293Z,20.74
2018-03-17T11:36:15.292Z,20.68
2018-03-17T11:37:15.262Z,20.66
2018-03-17T11:38:15.315Z,20.63
2018-03-17T11:39:15.258Z,20.62
2018-03-17T11:40:15.256Z,20.61
2018-03-17T11:41:15.311Z,20.63
2018-03-17T11:42:15.273Z,20.61
2018-03-17T11:43:15.248Z,20.61
2018-03-17T11:44:15.308Z,20.58
2018-03-17T11:45:15.259Z,20.57
2018-03-17T11:46:15.289Z,20.58
2018-03-17T11:47:15.294Z,20.57
2018-03-17T11:48:15.263Z,20.56
2018-03-17T11:49:15.527Z,20.57
2018-03-17T11:50:15.287Z,20.55
2018-03-17T11:51:15.263Z,20.53
2018-03-17T11:52:15.265Z,20.55
2018-03-17T11:53:15.297Z,20.51
2018-03-17T11:54:15.299Z,20.51
2018-03-17T11:55:15.272Z,20.5
2018-03-17T11:56:15.289Z,20.49
2018-03-17T11:57:15.259Z,20.47
2018-03-17T11:58:15.252Z,20.48
2018-03-17T11:59:15.434Z,20.48
2018-03-17T12:00:15.262Z,20.45
2018-03-17T12:01:15.251Z,20.45
2018-03-17T12:02:15.380Z,20.44
2018-03-17T12:03:15.376Z,20.45
2018-03-17T12:04:15.276Z,20.43
2018-03-17T12:05:15.328Z,20.42
2018-03-17T12:06:15.253Z,20.42
2018-03-17T12:07:15.299Z,20.41
2018-03-17T12:08:15.363Z,20.39
2018-03-17T12:09:15.353Z,20.39
2018-03-17T12:10:15.356Z,20.41
2018-03-17T12:11:15.332Z,20.39
2018-03-17T12:12:15.306Z,20.37
2018-03-17T12:13:15.309Z,20.39
2018-03-17T12:14:15.373Z,20.39
2018-03-17T12:15:15.237Z,20.37
2018-03-17T12:16:15.388Z,20.36
2018-03-17T12:17:15.329Z,20.35
2018-03-17T12:18:15.326Z,20.33
2018-03-17T12:19:15.254Z,20.35
2018-03-17T12:20:15.382Z,20.33
2018-03-17T12:21:15.362Z,20.33
2018-03-17T12:22:15.247Z,20.33
2018-03-17T12:23:15.338Z,20.33
2018-03-17T12:24:15.267Z,20.32
2018-03-17T12:25:15.282Z,20.29
2018-03-17T12:26:15.362Z,20.31
2018-03-17T12:27:15.375Z,20.31
2018-03-17T12:28:15.271Z,20.33
2018-03-17T12:29:15.324Z,20.3
2018-03-17T12:30:15.295Z,20.31
2018-03-17T12:31:15.332Z,20.31
2018-03-17T12:32:15.300Z,20.29
2018-03-17T12:33:15.350Z,20.29
2018-03-17T12:34:15.265Z,20.28
2018-03-17T12:35:15.326Z,20.3
2018-03-17T12:36:15.293Z,20.3
2018-03-17T12:37:15.331Z,20.3
2018-03-17T12:38:15.367Z,20.27
2018-03-17T12:39:15.360Z,20.29
2018-03-17T12:40:15.272Z,20.26
2018-03-17T12:41:15.379Z,20.24
2018-03-17T12:42:15.327Z,20.26
2018-03-17T12:43:15.240Z,20.27
2018-03-17T12:44:15.402Z,20.26
2018-03-17T12:45:15.251Z,20.27
2018-03-17T12:46:15.280Z,20.25
2018-03-17T12:47:15.305Z,20.25
2018-03-17T12:48:15.384Z,20.25
2018-03-17T12:49:15.394Z,20.24
2018-03-17T12:50:15.374Z,20.24
2018-03-17T12:51:15.254Z,20.22
2018-03-17T12:52:15.253Z,20.24
2018-03-17T12:53:15.267Z,20.25
2018-03-17T12:54:15.262Z,20.24
2018-03-17T12:55:15.241Z,20.2
2018-03-17T12:56:15.275Z,20.2
2018-03-17T12:57:15.258Z,20.18
2018-03-17T12:58:15.262Z,20.2
2018-03-17T12:59:15.298Z,20.2
2018-03-17T13:00:15.236Z,20.17
2018-03-17T13:01:15.241Z,20.19
2018-03-17T13:02:15.294Z,20.18
2018-03-17T13:03:15.242Z,20.16
2018-03-17T13:04:15.256Z,20.18
2018-03-17T13:05:15.282Z,20.15
2018-03-17T13:06:15.264Z,20.14
2018-03-17T13:07:15.250Z,20.14
2018-03-17T13:08:15.284Z,20.14
2018-03-17T13:09:15.338Z,20.15
2018-03-17T13:10:15.351Z,20.14
2018-03-17T13:11:15.343Z,20.14
2018-03-17T13:12:15.245Z,20.15
2018-03-17T13:13:15.254Z,20.12
2018-03-17T13:14:15.352Z,20.13
2018-03-17T13:15:15.224Z,20.13
2018-03-17T13:16:15.247Z,20.11
2018-03-17T13:17:15.387Z,20.11
2018-03-17T13:18:15.229Z,20.12
2018-03-17T13:19:15.269Z,20.12
2018-03-17T13:20:15.282Z,20.1
2018-03-17T13:21:15.274Z,20.12
2018-03-17T13:22:15.318Z,20.11